createdAt,value
2018-11-04T00:00:21.004Z,82.32
2018-11-04T00:02:59.585Z,82.68
2018-11-04T00:05:36.529Z,82.35
2018-11-04T00:08:14.636Z,82.57
2018-11-04T00:10:54.588Z,82.62
2018-11-04T00:13:33.148Z,82.96
2018-11-04T00:16:13.289Z,82.48
2018-11-04T00:18:49.668Z,82.57
2018-11-04T00:21:26.798Z,82.25
2018-11-04T00:24:02.627Z,82.22
2018-11-04T00:26:38.785Z,82.91
2018-11-04T00:29:15.669Z,82.48
2018-11-04T00:31:53.152Z,82.37
2018-11-04T00:34:29.328Z,82.99
2018-11-04T00:37:09.960Z,83.00
2018-11-04T00:39:48.805Z,83.26
2018-11-04T00:42:28.454Z,83.03
2018-11-04T00:45:06.811Z,82.45
2018-11-04T00:47:44.483Z,82.21
2018-11-04T00:50:20.972Z,82.50
2018-11-04T00:52:58.789Z,82.96
2018-11-04T00:55:40.091Z,82.58
2018-11-04T00:58:17.598Z,82.84
2018-11-04T01:00:54.056Z,82.95
2018-11-04T01:03:31.066Z,82.21
2018-11-04T01:06:09.255Z,82.71
2018-11-04T01:08:48.769Z,82.38
2018-11-04T01:11:26.426Z,82.92
2018-11-04T01:14:04.270Z,83.08
2018-11-04T01:16:44.549Z,82.96
2018-11-04T01:19:22.619Z,82.43
2018-11-04T01:21:58.724Z,83.11
2018-11-04T01:24:34.995Z,82.88
2018-11-04T01:27:10.990Z,83.07
2018-11-04T01:29:47.986Z,83.03
2018-11-04T01:32:23.291Z,82.75
2018-11-04T01:34:59.118Z,82.83
2018-11-04T01:37:36.093Z,82.60
2018-11-04T01:40:13.588Z,82.72
2018-11-04T01:42:50.239Z,82.70
2018-11-04T01:45:28.253Z,83.17
2018-11-04T01:48:01.625Z,83.03
2018-11-04T01:50:31.265Z,82.51
2018-11-04T01:53:00.776Z,82.36
2018-11-04T01:55:30.278Z,83.03
2018-11-04T01:57:59.823Z,82.28
2018-11-04T02:00:29.316Z,83.09
2018-11-04T02:02:59.717Z,82.90
2018-11-04T02:05:29.274Z,82.64
2018-11-04T02:07:58.878Z,83.57
2018-11-04T02:10:28.385Z,82.98
2018-11-04T02:12:57.947Z,83.48
2018-11-04T02:15:27.522Z,83.61
2018-11-04T02:17:57.085Z,83.41
2018-11-04T02:20:26.681Z,83.64
2018-11-04T02:22:56.290Z,83.74
2018-11-04T02:25:25.839Z,83.41
2018-11-04T02:27:55.370Z,83.11
2018-11-04T02:30:24.815Z,83.41
2018-11-04T02:32:54.417Z,83.23
2018-11-04T02:35:24.018Z,83.35
2018-11-04T02:40:37.336Z,82.81
2018-11-04T02:43:06.848Z,83.11
2018-11-04T02:45:36.322Z,83.09
2018-11-04T02:48:06.183Z,83.11
2018-11-04T02:50:35.665Z,83.12
2018-11-04T02:53:06.597Z,82.75
2018-11-04T02:55:36.147Z,83.34
2018-11-04T02:58:06.600Z,83.14
2018-11-04T03:00:36.156Z,82.66
2018-11-04T03:03:06.916Z,83.16
2018-11-04T03:05:36.381Z,83.24
2018-11-04T03:08:06.130Z,83.09
2018-11-04T03:10:35.630Z,83.45
2018-11-04T03:13:06.420Z,83.58
2018-11-04T03:15:35.915Z,83.41
2018-11-04T03:18:06.241Z,83.31
2018-11-04T03:20:35.780Z,83.71
2018-11-04T03:23:06.561Z,83.88
2018-11-04T03:25:36.015Z,83.67
2018-11-04T03:28:07.541Z,83.84
2018-11-04T03:30:37.451Z,83.24
2018-11-04T03:33:07.624Z,83.81
2018-11-04T03:35:37.283Z,83.40
2018-11-04T03:38:07.449Z,83.76
2018-11-04T03:40:37.034Z,83.46
2018-11-04T03:43:06.810Z,83.65
2018-11-04T03:45:36.280Z,84.10
2018-11-04T03:48:06.570Z,84.00
2018-11-04T03:50:36.131Z,84.03
2018-11-04T03:53:07.669Z,83.50
2018-11-04T03:55:38.120Z,83.62
2018-11-04T03:58:07.639Z,83.65
2018-11-04T04:00:37.296Z,83.76
2018-11-04T04:03:06.840Z,83.48
2018-11-04T04:05:36.461Z,83.74
2018-11-04T04:08:06.560Z,83.90
2018-11-04T04:10:36.061Z,83.48
2018-11-04T04:13:05.871Z,84.31
2018-11-04T04:15:35.340Z,83.78
2018-11-04T04:18:06.061Z,83.71
2018-11-04T04:20:35.597Z,83.86
2018-11-04T04:23:06.347Z,84.05
2018-11-04T04:25:35.938Z,83.72
2018-11-04T04:28:06.318Z,84.21
2018-11-04T04:30:36.826Z,83.66
2018-11-04T04:33:06.815Z,84.03
2018-11-04T04:35:36.368Z,83.58
2018-11-04T04:38:06.872Z,83.42
2018-11-04T04:40:36.414Z,83.87
2018-11-04T04:43:07.657Z,83.26
2018-11-04T04:45:37.164Z,83.40
2018-11-04T04:48:06.946Z,83.23
2018-11-04T04:50:36.469Z,83.72
2018-11-04T04:53:07.019Z,83.69
2018-11-04T04:55:36.479Z,83.20
2018-11-04T04:58:13.201Z,83.31
2018-11-04T05:00:42.531Z,83.30
2018-11-04T05:03:11.841Z,83.15
2018-11-04T05:05:41.190Z,83.02
2018-11-04T05:08:10.547Z,83.23
2018-11-04T05:10:39.866Z,83.33
2018-11-04T05:13:09.198Z,83.69
2018-11-04T05:15:38.520Z,83.07
2018-11-04T05:18:08.306Z,83.04
2018-11-04T05:20:37.687Z,83.55
2018-11-04T05:23:07.409Z,83.15
2018-11-04T05:25:36.771Z,83.36
2018-11-04T05:28:06.794Z,84.03
2018-11-04T05:30:36.271Z,83.92
2018-11-04T05:33:06.396Z,83.69
2018-11-04T05:35:35.776Z,84.14
2018-11-04T05:38:06.355Z,83.76
2018-11-04T05:40:35.691Z,84.11
2018-11-04T05:43:06.153Z,83.94
2018-11-04T05:45:48.731Z,83.97
2018-11-04T05:48:18.847Z,83.43
2018-11-04T05:50:48.165Z,83.36
2018-11-04T05:53:17.497Z,83.96
2018-11-04T05:55:46.835Z,83.88
2018-11-04T05:58:16.382Z,83.51
2018-11-04T06:00:51.485Z,83.51
2018-11-04T06:03:21.060Z,84.17
2018-11-04T06:05:50.626Z,83.47
2018-11-04T06:08:20.134Z,83.81
2018-11-04T06:10:49.680Z,83.44
2018-11-04T06:13:19.243Z,83.68
2018-11-04T06:15:48.787Z,83.81
2018-11-04T06:18:18.703Z,83.75
2018-11-04T06:20:48.281Z,83.46
2018-11-04T06:23:17.888Z,83.77
2018-11-04T06:25:47.375Z,83.46
2018-11-04T06:28:16.879Z,83.46
2018-11-04T06:30:46.364Z,83.68
2018-11-04T06:33:15.813Z,83.55
2018-11-04T06:35:45.372Z,83.87
2018-11-04T06:38:14.847Z,83.45
2018-11-04T06:40:44.410Z,83.84
2018-11-04T06:43:13.915Z,83.02
2018-11-04T06:45:43.427Z,83.89
2018-11-04T06:48:12.938Z,83.65
2018-11-04T06:50:42.553Z,83.17
2018-11-04T06:53:12.038Z,83.47
2018-11-04T06:55:41.554Z,83.69
2018-11-04T06:58:11.247Z,83.58
2018-11-04T07:00:40.865Z,83.94
2018-11-04T07:03:10.374Z,83.75
2018-11-04T07:08:21.362Z,84.01
2018-11-04T07:10:54.321Z,83.86
2018-11-04T07:13:23.943Z,84.30
2018-11-04T07:15:53.462Z,84.06
2018-11-04T07:18:23.062Z,84.29
2018-11-04T07:20:52.606Z,84.16
2018-11-04T07:23:22.182Z,84.29
2018-11-04T07:25:51.793Z,84.04
2018-11-04T07:28:21.499Z,84.22
2018-11-04T07:30:51.099Z,84.31
2018-11-04T07:33:20.599Z,84.67
2018-11-04T07:35:50.208Z,84.36
2018-11-04T07:38:21.019Z,84.25
2018-11-04T07:41:03.866Z,84.55
2018-11-04T07:43:33.663Z,84.72
2018-11-04T07:46:31.748Z,83.90
2018-11-04T07:52:07.091Z,83.89
2018-11-04T07:54:36.610Z,84.23
2018-11-04T07:57:06.352Z,84.19
2018-11-04T07:59:35.737Z,84.18
2018-11-04T08:02:06.164Z,84.16
2018-11-04T08:04:35.616Z,84.34
2018-11-04T08:07:41.071Z,84.84
2018-11-04T08:10:12.196Z,84.95
2018-11-04T08:12:42.160Z,84.94
2018-11-04T08:15:12.139Z,85.08
2018-11-04T08:17:46.861Z,85.33
2018-11-04T08:20:16.382Z,84.88
2018-11-04T08:22:45.767Z,85.32
2018-11-04T08:25:15.250Z,85.30
2018-11-04T08:27:46.593Z,85.11
2018-11-04T08:30:16.340Z,85.28
2018-11-04T08:32:45.818Z,85.67
2018-11-04T08:35:15.246Z,85.56
2018-11-04T08:37:44.695Z,85.37
2018-11-04T08:40:15.564Z,85.30
2018-11-04T08:42:47.713Z,86.00
2018-11-04T08:45:17.242Z,85.43
2018-11-04T08:48:17.401Z,85.33
2018-11-04T08:50:46.831Z,85.93
2018-11-04T08:53:16.265Z,85.60
2018-11-04T08:55:45.626Z,85.78
2018-11-04T08:58:15.090Z,85.60
2018-11-04T09:00:44.437Z,85.91
2018-11-04T09:03:13.815Z,85.50
2018-11-04T09:05:43.241Z,85.99
2018-11-04T09:08:20.313Z,85.45
2018-11-04T09:10:49.691Z,85.72
2018-11-04T09:13:19.098Z,85.83
2018-11-04T09:15:48.568Z,85.92
2018-11-04T09:18:17.938Z,85.93
2018-11-04T09:20:47.381Z,85.59
2018-11-04T09:23:16.806Z,85.90
2018-11-04T09:25:46.185Z,85.54
2018-11-04T09:28:15.757Z,85.84
2018-11-04T09:30:45.252Z,85.95
2018-11-04T09:33:14.710Z,86.01
2018-11-04T09:35:44.473Z,85.49
2018-11-04T09:38:13.718Z,85.42
2018-11-04T09:40:43.095Z,85.71
2018-11-04T09:43:12.423Z,85.40
2018-11-04T09:45:41.815Z,85.59
2018-11-04T09:48:11.251Z,85.38
2018-11-04T09:50:44.041Z,85.29
2018-11-04T09:53:23.688Z,85.75
2018-11-04T09:55:53.183Z,85.22
2018-11-04T09:58:22.554Z,85.26
2018-11-04T10:00:51.982Z,85.29
2018-11-04T10:03:50.378Z,85.63
2018-11-04T10:06:21.752Z,85.49
2018-11-04T10:08:51.169Z,85.58
2018-11-04T10:11:20.608Z,85.29
2018-11-04T10:13:50.138Z,85.07
2018-11-04T10:16:32.426Z,85.16
2018-11-04T10:19:01.918Z,85.29
2018-11-04T10:21:31.826Z,85.26
2018-11-04T10:24:06.397Z,84.88
2018-11-04T10:26:36.940Z,84.72
2018-11-04T10:29:06.809Z,85.10
2018-11-04T10:31:36.199Z,84.73
2018-11-04T10:34:28.346Z,84.75
2018-11-04T10:36:57.700Z,85.05
2018-11-04T10:39:27.149Z,84.80
2018-11-04T10:41:56.467Z,85.02
2018-11-04T10:44:26.653Z,84.73
2018-11-04T10:46:56.009Z,84.81
2018-11-04T10:49:25.445Z,84.41
2018-11-04T10:51:54.740Z,84.64
2018-11-04T10:54:24.100Z,84.41
2018-11-04T10:56:53.437Z,84.45
2018-11-04T10:59:22.800Z,84.32
2018-11-04T11:01:52.156Z,84.69
2018-11-04T11:04:21.507Z,84.50
2018-11-04T11:06:50.929Z,84.45
2018-11-04T11:09:20.321Z,84.33
2018-11-04T11:11:49.678Z,84.28
2018-11-04T11:14:19.007Z,84.02
2018-11-04T11:16:49.216Z,84.48
2018-11-04T11:19:18.583Z,84.41
2018-11-04T11:21:47.943Z,84.11
2018-11-04T11:24:17.308Z,83.66
2018-11-04T11:26:46.641Z,83.97
2018-11-04T11:29:16.008Z,83.91
2018-11-04T11:31:45.351Z,83.71
2018-11-04T11:34:14.728Z,83.79
2018-11-04T11:36:44.075Z,83.92
2018-11-04T11:39:14.287Z,83.32
2018-11-04T11:41:46.282Z,83.59
2018-11-04T11:44:22.986Z,83.61
2018-11-04T11:46:53.284Z,83.24
2018-11-04T11:49:22.662Z,82.96
2018-11-04T11:51:52.059Z,82.92
2018-11-04T11:54:21.567Z,83.08
2018-11-04T11:56:50.894Z,83.28
2018-11-04T11:59:20.263Z,82.84
2018-11-04T12:01:49.556Z,82.93
2018-11-04T12:04:18.896Z,82.69
2018-11-04T12:06:48.248Z,82.56
2018-11-04T12:09:20.343Z,82.52
2018-11-04T12:11:49.770Z,82.52
2018-11-04T12:14:19.169Z,82.09
2018-11-04T12:16:48.594Z,82.21
2018-11-04T12:19:19.242Z,82.37
2018-11-04T12:21:48.646Z,81.99
2018-11-04T12:24:18.047Z,81.41
2018-11-04T12:26:47.366Z,82.12
2018-11-04T12:29:16.739Z,81.24
2018-11-04T12:31:46.124Z,81.34
2018-11-04T12:34:16.045Z,81.43
2018-11-04T12:36:54.682Z,81.07
2018-11-04T12:39:24.120Z,81.41
2018-11-04T12:41:53.451Z,80.40
2018-11-04T12:44:22.960Z,80.90
2018-11-04T12:46:52.363Z,80.60
2018-11-04T12:49:22.591Z,79.40
2018-11-04T12:51:52.691Z,79.06
2018-11-04T12:54:22.099Z,77.38
2018-11-04T12:56:51.440Z,76.10
2018-11-04T12:59:20.993Z,74.69
2018-11-04T13:02:01.195Z,73.30
2018-11-04T13:04:30.639Z,71.27
2018-11-04T13:07:07.306Z,69.81
2018-11-04T13:09:44.383Z,69.21
2018-11-04T13:12:13.794Z,69.02
2018-11-04T13:14:43.149Z,69.46
2018-11-04T13:17:12.583Z,69.11
2018-11-04T13:19:43.463Z,69.13
2018-11-04T13:22:22.627Z,69.14
2018-11-04T13:24:51.960Z,68.86
2018-11-04T13:27:21.359Z,68.39
2018-11-04T13:29:50.718Z,68.75
2018-11-04T13:35:37.252Z,69.28
2018-11-04T13:51:48.553Z,70.60
2018-11-04T13:54:27.057Z,71.09
2018-11-04T13:56:56.433Z,70.53
2018-11-04T13:59:25.778Z,70.64
2018-11-04T14:01:55.112Z,70.81
2018-11-04T14:04:26.650Z,70.38
2018-11-04T14:06:56.083Z,70.20
2018-11-04T14:09:25.431Z,70.32
2018-11-04T14:11:54.779Z,70.51
2018-11-04T14:14:24.127Z,70.40
2018-11-04T14:16:53.512Z,69.97
2018-11-04T14:19:23.701Z,69.85
2018-11-04T14:22:05.375Z,69.92
2018-11-04T14:24:34.735Z,69.98
2018-11-04T14:29:48.254Z,69.76
2018-11-04T14:32:17.788Z,69.63
2018-11-04T14:34:47.162Z,70.00
2018-11-04T14:37:16.582Z,69.93
2018-11-04T14:39:49.853Z,69.94
2018-11-04T14:42:19.206Z,69.69
2018-11-04T14:44:56.817Z,69.70
2018-11-04T14:47:48.314Z,70.22
2018-11-04T14:50:19.010Z,70.84
2018-11-04T14:52:48.990Z,70.22
2018-11-04T14:55:22.521Z,70.57
2018-11-04T14:57:57.459Z,70.83
2018-11-04T15:00:45.089Z,71.07
2018-11-04T15:03:14.469Z,71.32
2018-11-04T15:05:43.860Z,71.81
2018-11-04T15:08:13.182Z,72.10
2018-11-04T15:10:42.558Z,71.80
2018-11-04T15:13:13.693Z,72.48
2018-11-04T15:15:43.059Z,72.68
2018-11-04T15:18:18.390Z,72.66
2018-11-04T15:20:51.780Z,73.16
2018-11-04T15:23:23.022Z,73.08
2018-11-04T15:25:55.994Z,73.44
2018-11-04T15:28:25.325Z,73.19
2018-11-04T15:30:58.233Z,73.58
2018-11-04T15:33:30.441Z,73.92
2018-11-04T15:36:07.859Z,74.08
2018-11-04T15:38:37.244Z,73.97
2018-11-04T15:41:09.080Z,74.32
2018-11-04T15:43:39.114Z,75.02
2018-11-04T15:46:09.000Z,74.86
2018-11-04T15:48:38.379Z,75.18
2018-11-04T15:51:07.749Z,75.20
2018-11-04T15:53:37.105Z,75.83
2018-11-04T15:56:54.708Z,75.65
2018-11-04T15:59:28.241Z,76.19
2018-11-04T16:01:57.580Z,76.10
2018-11-04T16:04:26.959Z,76.25
2018-11-04T16:06:58.410Z,76.18
2018-11-04T16:09:27.821Z,76.41
2018-11-04T16:11:57.207Z,76.50
2018-11-04T16:14:26.585Z,76.39
2018-11-04T16:16:55.930Z,76.62
2018-11-04T16:19:25.288Z,76.60
2018-11-04T16:21:54.817Z,77.03
2018-11-04T16:24:25.913Z,77.15
2018-11-04T16:27:10.070Z,76.95
2018-11-04T16:29:42.487Z,77.17
2018-11-04T16:32:13.508Z,77.03
2018-11-04T16:34:42.744Z,77.02
2018-11-04T16:37:12.160Z,77.50
2018-11-04T16:39:41.543Z,77.27
2018-11-04T16:42:10.907Z,77.34
2018-11-04T16:44:40.591Z,77.12
2018-11-04T16:47:10.101Z,77.80
2018-11-04T16:49:39.644Z,77.38
2018-11-04T16:52:09.205Z,77.61
2018-11-04T16:54:47.384Z,77.33
2018-11-04T16:57:22.568Z,77.27
2018-11-04T16:59:52.341Z,77.52
2018-11-04T17:02:44.784Z,77.87
2018-11-04T17:05:14.620Z,77.69
2018-11-04T17:07:44.206Z,77.80
2018-11-04T17:10:15.137Z,77.45
2018-11-04T17:12:44.764Z,77.72
2018-11-04T17:15:15.483Z,77.84
2018-11-04T17:17:45.329Z,77.64
2018-11-04T17:20:17.191Z,77.83
2018-11-04T17:22:47.218Z,77.80
2018-11-04T17:25:16.852Z,78.15
2018-11-04T17:27:46.507Z,77.72
2018-11-04T17:30:21.961Z,78.09
2018-11-04T17:32:57.770Z,77.90
2018-11-04T17:35:27.396Z,78.25
2018-11-04T17:37:56.927Z,78.22
2018-11-04T17:40:26.474Z,78.29
2018-11-04T17:42:56.135Z,78.10
2018-11-04T17:45:25.721Z,78.86
2018-11-04T17:47:55.557Z,78.37
2018-11-04T17:50:25.250Z,78.71
2018-11-04T17:52:58.892Z,78.64
2018-11-04T17:55:28.291Z,78.74
2018-11-04T17:57:57.631Z,78.45
2018-11-04T18:00:26.943Z,78.79
2018-11-04T18:02:56.271Z,78.42
2018-11-04T18:05:25.621Z,78.52
2018-11-04T18:07:55.026Z,78.42
2018-11-04T18:10:24.356Z,78.36
2018-11-04T18:12:53.718Z,78.99
2018-11-04T18:15:23.051Z,78.93
2018-11-04T18:17:52.390Z,78.46
2018-11-04T18:20:21.699Z,78.79
2018-11-04T18:22:51.057Z,78.99
2018-11-04T18:25:20.431Z,78.65
2018-11-04T18:27:49.795Z,78.62
2018-11-04T18:30:19.295Z,78.75
2018-11-04T18:32:48.842Z,78.78
2018-11-04T18:35:18.406Z,78.88
2018-11-04T18:37:48.212Z,79.15
2018-11-04T18:40:18.846Z,78.78
2018-11-04T18:42:48.454Z,79.22
2018-11-04T18:45:18.368Z,79.23
2018-11-04T18:47:47.973Z,79.39
2018-11-04T18:50:17.841Z,79.22
2018-11-04T18:52:47.647Z,79.67
2018-11-04T18:55:17.286Z,79.49
2018-11-04T18:57:46.817Z,79.43
2018-11-04T19:00:17.754Z,79.96
2018-11-04T19:02:48.259Z,79.64
2018-11-04T19:05:17.826Z,79.53
2018-11-04T19:07:47.435Z,79.78
2018-11-04T19:10:18.716Z,79.60
2018-11-04T19:12:48.442Z,79.33
2018-11-04T19:15:19.333Z,79.24
2018-11-04T19:17:49.102Z,79.88
2018-11-04T19:20:18.717Z,79.59
2018-11-04T19:22:48.410Z,80.07
2018-11-04T19:25:17.915Z,80.18
2018-11-04T19:27:47.504Z,79.80
2018-11-04T19:30:17.950Z,79.99
2018-11-04T19:32:47.637Z,80.09
2018-11-04T19:35:17.780Z,80.01
2018-11-04T19:37:47.395Z,80.67
2018-11-04T19:40:17.604Z,80.59
2018-11-04T19:42:47.127Z,80.45
2018-11-04T19:45:17.124Z,80.39
2018-11-04T19:47:46.966Z,80.69
2018-11-04T19:50:16.660Z,80.72
2018-11-04T19:55:27.593Z,80.48
2018-11-04T19:57:57.192Z,80.62
2018-11-04T20:00:26.750Z,80.45
2018-11-04T20:02:56.455Z,80.88
2018-11-04T20:05:26.209Z,80.60
2018-11-04T20:08:11.352Z,80.76
2018-11-04T20:10:40.937Z,80.63
2018-11-04T20:13:15.863Z,81.10
2018-11-04T20:15:45.386Z,81.46
2018-11-04T20:18:26.869Z,81.00
2018-11-04T20:20:56.528Z,81.22
2018-11-04T20:23:26.101Z,81.15
2018-11-04T20:26:02.558Z,81.59
2018-11-04T20:28:32.267Z,81.67
2018-11-04T20:31:01.782Z,81.68
2018-11-04T20:33:31.292Z,82.14
2018-11-04T20:36:01.026Z,82.13
2018-11-04T20:38:35.558Z,81.95
2018-11-04T20:41:11.513Z,82.03
2018-11-04T20:43:41.252Z,82.22
2018-11-04T20:46:11.648Z,82.27
2018-11-04T20:48:46.411Z,82.28
2018-11-04T20:51:18.806Z,82.41
2018-11-04T20:53:48.618Z,82.17
2018-11-04T20:56:23.396Z,82.42
2018-11-04T20:58:52.959Z,82.20
2018-11-04T21:01:22.671Z,82.32
2018-11-04T21:03:52.408Z,82.42
2018-11-04T21:06:22.007Z,82.42
2018-11-04T21:08:51.771Z,82.45
2018-11-04T21:11:21.602Z,82.70
2018-11-04T21:16:15.689Z,82.79
2018-11-04T21:18:45.102Z,82.94
2018-11-04T21:21:15.635Z,82.98
2018-11-04T21:23:45.347Z,83.11
2018-11-04T21:26:15.055Z,83.08
2018-11-04T21:28:44.809Z,83.38
2018-11-04T21:31:14.401Z,83.44
2018-11-04T21:33:44.793Z,83.13
2018-11-04T21:36:15.173Z,83.00
2018-11-04T21:38:47.819Z,83.33
2018-11-04T21:41:17.183Z,83.12
2018-11-04T21:43:46.790Z,83.40
2018-11-04T21:46:15.915Z,83.30
2018-11-04T21:48:46.008Z,83.34
2018-11-04T21:51:15.893Z,83.37
2018-11-04T21:53:45.218Z,83.73
2018-11-04T21:56:15.417Z,83.63
2018-11-04T21:58:45.147Z,83.63
2018-11-04T22:01:14.509Z,83.57
2018-11-04T22:03:43.922Z,83.97
2018-11-04T22:06:13.217Z,83.86
2018-11-04T22:08:42.610Z,83.42
2018-11-04T22:11:11.994Z,83.44
2018-11-04T22:13:41.389Z,83.72
2018-11-04T22:16:10.825Z,83.32
2018-11-04T22:18:40.575Z,83.92
2018-11-04T22:21:09.974Z,83.34
2018-11-04T22:23:39.376Z,83.40
2018-11-04T22:26:08.821Z,83.84
2018-11-04T22:28:38.211Z,83.96
2018-11-04T22:31:07.542Z,83.91
2018-11-04T22:33:36.886Z,83.97
2018-11-04T22:36:06.439Z,83.59
2018-11-04T22:38:35.799Z,83.91
2018-11-04T22:41:06.454Z,83.76
2018-11-04T22:43:35.927Z,83.73
2018-11-04T22:46:06.731Z,84.28
2018-11-04T22:48:39.404Z,84.26
2018-11-04T22:51:09.330Z,84.42
2018-11-04T22:53:38.705Z,84.68
2018-11-04T22:56:08.174Z,84.58
2018-11-04T22:58:37.467Z,84.94
2018-11-04T23:01:06.965Z,84.59
2018-11-04T23:03:36.328Z,84.97
2018-11-04T23:06:07.699Z,84.87
2018-11-04T23:08:37.059Z,84.66
2018-11-04T23:11:06.416Z,85.06
2018-11-04T23:13:35.769Z,84.71
2018-11-04T23:16:06.354Z,84.75
2018-11-04T23:18:35.831Z,84.75
2018-11-04T23:21:06.585Z,84.52
2018-11-04T23:23:35.938Z,84.51
2018-11-04T23:26:07.050Z,84.09
2018-11-04T23:28:36.431Z,84.42
2018-11-04T23:31:06.569Z,85.21
2018-11-04T23:33:37.826Z,85.02
2018-11-04T23:36:07.220Z,84.56
2018-11-04T23:38:36.595Z,84.35
2018-11-04T23:41:06.648Z,84.52
2018-11-04T23:43:36.042Z,84.52
2018-11-04T23:46:06.906Z,84.45
2018-11-04T23:48:36.270Z,84.14
2018-11-04T23:51:06.592Z,84.42
2018-11-04T23:53:35.930Z,84.50
2018-11-04T23:56:06.578Z,84.81
2018-11-04T23:58:36.281Z,84.62
